createdAt,value
2023-05-07T00:02:26.481Z,101865.50
2023-05-07T00:04:54.472Z,101862.03
2023-05-07T00:07:22.630Z,101871.66
2023-05-07T00:09:50.361Z,101866.50
2023-05-07T00:12:19.537Z,101879.44
2023-05-07T00:14:47.325Z,101885.28
2023-05-07T00:17:15.142Z,101896.81
2023-05-07T00:19:42.882Z,101876.38
2023-05-07T00:22:11.308Z,101897.00
2023-05-07T00:24:39.078Z,101901.81
2023-05-07T00:27:07.110Z,101915.06
2023-05-07T00:29:37.633Z,101927.19
2023-05-07T00:32:05.730Z,101918.84
2023-05-07T00:34:33.669Z,101898.03
2023-05-07T00:37:01.464Z,101915.75
2023-05-07T00:39:29.183Z,101931.75
2023-05-07T00:41:56.955Z,101931.47
2023-05-07T00:44:24.731Z,101914.84
2023-05-07T00:46:53.986Z,101905.94
2023-05-07T00:49:22.122Z,101911.03
2023-05-07T00:51:49.954Z,101914.44
2023-05-07T00:54:17.701Z,101890.69
2023-05-07T00:56:46.511Z,101865.56
2023-05-07T00:59:14.370Z,101873.41
2023-05-07T01:01:42.218Z,101888.97
2023-05-07T01:04:11.399Z,101902.47
2023-05-07T01:06:40.225Z,101903.63
2023-05-07T01:09:10.190Z,101896.72
2023-05-07T01:11:37.956Z,101909.75
2023-05-07T01:14:06.243Z,101905.50
2023-05-07T01:16:34.068Z,101903.63
2023-05-07T01:19:02.650Z,101891.47
2023-05-07T01:21:35.377Z,101871.94
2023-05-07T01:24:04.765Z,101867.69
2023-05-07T01:26:32.992Z,101858.03
2023-05-07T01:29:00.751Z,101879.25
2023-05-07T01:31:28.636Z,101883.97
2023-05-07T01:33:59.271Z,101888.72
2023-05-07T01:36:28.287Z,101890.47
2023-05-07T01:38:59.551Z,101892.44
2023-05-07T01:41:28.703Z,101877.34
2023-05-07T01:43:57.019Z,101870.34
2023-05-07T01:46:25.356Z,101875.09
2023-05-07T01:48:54.756Z,101877.59
2023-05-07T01:51:23.326Z,101868.25
2023-05-07T01:53:51.990Z,101866.78
2023-05-07T01:56:19.753Z,101872.75
2023-05-07T01:58:48.991Z,101862.00
2023-05-07T02:01:16.774Z,101860.38
2023-05-07T02:03:44.613Z,101843.91
2023-05-07T02:06:12.646Z,101863.09
2023-05-07T02:08:40.506Z,101846.66
2023-05-07T02:11:08.227Z,101841.84
2023-05-07T02:13:36.827Z,101848.03
2023-05-07T02:16:06.675Z,101854.97
2023-05-07T02:18:34.504Z,101850.09
2023-05-07T02:21:02.220Z,101848.81
2023-05-07T02:23:29.935Z,101829.19
2023-05-07T02:25:57.682Z,101819.41
2023-05-07T02:28:25.423Z,101829.75
2023-05-07T02:30:53.146Z,101839.75
2023-05-07T02:33:22.239Z,101838.94
2023-05-07T02:35:50.001Z,101846.81
2023-05-07T02:38:17.705Z,101853.22
2023-05-07T02:40:45.840Z,101847.78
2023-05-07T02:43:13.594Z,101860.22
2023-05-07T02:45:41.413Z,101884.91
2023-05-07T02:48:09.240Z,101838.38
2023-05-07T02:50:38.442Z,101834.31
2023-05-07T02:53:06.168Z,101854.31
2023-05-07T02:55:33.900Z,101845.56
2023-05-07T02:58:01.677Z,101829.44
2023-05-07T03:00:29.388Z,101849.69
2023-05-07T03:02:57.214Z,101862.94
2023-05-07T03:05:25.124Z,101866.41
2023-05-07T03:07:54.213Z,101861.06
2023-05-07T03:10:21.926Z,101857.28
2023-05-07T03:12:49.640Z,101874.16
2023-05-07T03:15:17.894Z,101878.84
2023-05-07T03:17:45.616Z,101869.41
2023-05-07T03:20:14.304Z,101850.03
2023-05-07T03:22:42.624Z,101869.50
2023-05-07T03:25:13.142Z,101875.22
2023-05-07T03:27:40.918Z,101879.66
2023-05-07T03:30:09.981Z,101867.84
2023-05-07T03:32:38.092Z,101865.59
2023-05-07T03:35:06.619Z,101879.97
2023-05-07T03:37:34.373Z,101882.66
2023-05-07T03:40:02.130Z,101893.63
2023-05-07T03:42:31.467Z,101907.31
2023-05-07T03:44:59.317Z,101896.41
2023-05-07T03:47:27.065Z,101913.84
2023-05-07T03:49:55.900Z,101913.19
2023-05-07T03:52:26.890Z,101894.81
2023-05-07T03:54:54.886Z,101921.16
2023-05-07T03:57:22.960Z,101912.91
2023-05-07T03:59:52.094Z,101920.34
2023-05-07T04:02:19.838Z,101927.84
2023-05-07T04:04:47.601Z,101901.03
2023-05-07T04:07:16.057Z,101921.84
2023-05-07T04:09:43.814Z,101914.50
2023-05-07T04:12:11.588Z,101898.56
2023-05-07T04:14:39.279Z,101867.97
2023-05-07T04:17:10.702Z,101864.25
2023-05-07T04:19:38.476Z,101868.72
2023-05-07T04:22:06.232Z,101871.69
2023-05-07T04:24:34.964Z,101881.72
2023-05-07T04:27:02.697Z,101886.50
2023-05-07T04:29:30.548Z,101868.88
2023-05-07T04:31:59.852Z,101881.06
2023-05-07T04:34:29.059Z,101878.53
2023-05-07T04:37:00.679Z,101904.66
2023-05-07T04:39:28.445Z,101890.50
2023-05-07T04:41:56.682Z,101877.84
2023-05-07T04:44:24.395Z,101884.75
2023-05-07T04:46:52.100Z,101876.59
2023-05-07T04:49:19.857Z,101886.59
2023-05-07T04:51:48.955Z,101928.28
2023-05-07T04:54:16.694Z,101915.81
2023-05-07T04:56:44.451Z,101921.91
2023-05-07T04:59:12.191Z,101927.72
2023-05-07T05:01:39.982Z,101930.06
2023-05-07T05:04:07.871Z,101953.16
2023-05-07T05:06:35.637Z,101939.16
2023-05-07T05:09:05.926Z,101947.81
2023-05-07T05:11:33.759Z,101945.13
2023-05-07T05:14:03.015Z,101956.53
2023-05-07T05:16:30.772Z,101972.03
2023-05-07T05:18:58.571Z,102010.09
2023-05-07T05:21:26.294Z,102013.84
2023-05-07T05:23:54.046Z,102014.22
2023-05-07T05:26:23.228Z,102010.59
2023-05-07T05:28:51.112Z,102028.63
2023-05-07T05:31:19.114Z,102028.59
2023-05-07T05:33:46.912Z,102051.75
2023-05-07T05:36:14.684Z,102073.00
2023-05-07T05:38:42.492Z,102071.66
2023-05-07T05:41:10.258Z,102072.00
2023-05-07T05:43:39.376Z,102132.41
2023-05-07T05:46:07.216Z,102123.19
2023-05-07T05:48:34.991Z,102135.97
2023-05-07T05:51:02.734Z,102139.13
2023-05-07T05:53:30.609Z,102124.59
2023-05-07T05:55:58.368Z,102137.84
2023-05-07T05:58:26.367Z,102146.13
2023-05-07T06:00:55.932Z,102147.50
2023-05-07T06:03:23.697Z,102154.88
2023-05-07T06:05:51.456Z,102187.13
2023-05-07T06:08:19.621Z,102196.44
2023-05-07T06:10:47.451Z,102225.81
2023-05-07T06:13:15.155Z,102191.16
2023-05-07T06:15:42.907Z,102208.78
2023-05-07T06:18:12.068Z,102206.47
2023-05-07T06:20:39.816Z,102208.41
2023-05-07T06:23:07.581Z,102223.88
2023-05-07T06:25:35.361Z,102245.88
2023-05-07T06:28:03.084Z,102252.31
2023-05-07T06:30:30.976Z,102262.94
2023-05-07T06:32:58.733Z,102289.63
2023-05-07T06:35:27.906Z,102283.53
2023-05-07T06:37:55.700Z,102283.81
2023-05-07T06:40:23.424Z,102266.72
2023-05-07T06:42:51.164Z,102283.75
2023-05-07T06:45:18.985Z,102279.13
2023-05-07T06:47:46.740Z,102285.97
2023-05-07T06:50:14.771Z,102315.19
2023-05-07T06:52:43.852Z,102303.00
2023-05-07T06:55:12.152Z,102299.97
2023-05-07T06:57:40.034Z,102296.13
2023-05-07T07:00:10.451Z,102300.41
2023-05-07T07:02:38.804Z,102295.28
2023-05-07T07:05:07.600Z,102320.41
2023-05-07T07:07:35.353Z,102332.50
2023-05-07T07:10:05.752Z,102320.66
2023-05-07T07:12:33.492Z,102317.59
2023-05-07T07:15:01.241Z,102337.19
2023-05-07T07:17:29.582Z,102344.34
2023-05-07T07:19:57.328Z,102358.53
2023-05-07T07:22:25.035Z,102354.41
2023-05-07T07:24:53.157Z,102352.69
2023-05-07T07:27:22.335Z,102355.13
2023-05-07T07:29:50.074Z,102369.53
2023-05-07T07:32:17.953Z,102388.88
2023-05-07T07:34:46.811Z,102382.31
2023-05-07T07:37:14.603Z,102387.38
2023-05-07T07:39:42.300Z,102388.81
2023-05-07T07:42:10.040Z,102405.56
2023-05-07T07:44:40.586Z,102395.09
2023-05-07T07:47:08.471Z,102406.50
2023-05-07T07:49:36.427Z,102390.09
2023-05-07T07:52:04.577Z,102403.88
2023-05-07T07:54:32.347Z,102409.00
2023-05-07T07:57:00.644Z,102412.25
2023-05-07T07:59:28.359Z,102401.84
2023-05-07T08:01:58.204Z,102409.63
2023-05-07T08:04:26.153Z,102415.25
2023-05-07T08:06:55.311Z,102409.91
2023-05-07T08:09:23.036Z,102428.16
2023-05-07T08:11:50.806Z,102430.38
2023-05-07T08:14:19.673Z,102434.00
2023-05-07T08:16:47.515Z,102433.72
2023-05-07T08:19:16.693Z,102433.59
2023-05-07T08:21:44.407Z,102433.03
2023-05-07T08:24:12.644Z,102440.69
2023-05-07T08:26:40.523Z,102427.19
2023-05-07T08:29:08.475Z,102433.66
2023-05-07T08:31:36.210Z,102422.72
2023-05-07T08:34:03.978Z,102434.34
2023-05-07T08:36:33.281Z,102425.47
2023-05-07T08:39:02.083Z,102421.72
2023-05-07T08:41:30.105Z,102419.50
2023-05-07T08:44:01.036Z,102426.22
2023-05-07T08:46:34.056Z,102421.66
2023-05-07T08:49:01.913Z,102426.34
2023-05-07T08:51:29.700Z,102430.47
2023-05-07T08:53:58.901Z,102433.53
2023-05-07T08:56:26.748Z,102431.38
2023-05-07T08:58:57.485Z,102430.22
2023-05-07T09:01:26.414Z,102438.75
2023-05-07T09:03:55.340Z,102434.84
2023-05-07T09:06:23.212Z,102425.47
2023-05-07T09:08:52.728Z,102435.31
2023-05-07T09:11:24.273Z,102430.94
2023-05-07T09:13:55.950Z,102429.06
2023-05-07T09:16:24.404Z,102413.00
2023-05-07T09:18:53.564Z,102416.13
2023-05-07T09:21:23.813Z,102417.38
2023-05-07T09:23:52.859Z,102412.88
2023-05-07T09:26:23.018Z,102412.00
2023-05-07T09:28:52.172Z,102407.75
2023-05-07T09:31:21.520Z,102410.06
2023-05-07T09:33:49.566Z,102404.19
2023-05-07T09:36:18.058Z,102411.13
2023-05-07T09:38:47.346Z,102403.91
2023-05-07T09:41:15.412Z,102409.97
2023-05-07T09:43:43.194Z,102401.81
2023-05-07T09:46:14.998Z,102401.69
2023-05-07T09:48:45.804Z,102411.31
2023-05-07T09:51:28.048Z,102391.66
2023-05-07T09:53:56.102Z,102396.09
2023-05-07T09:56:24.722Z,102410.41
2023-05-07T09:58:55.866Z,102404.66
2023-05-07T10:01:27.653Z,102403.44
2023-05-07T10:03:55.602Z,102399.81
2023-05-07T10:06:24.849Z,102412.19
2023-05-07T10:08:53.802Z,102409.47
2023-05-07T10:11:22.175Z,102397.56
2023-05-07T10:13:50.515Z,102398.28
2023-05-07T10:16:19.745Z,102410.03
2023-05-07T10:18:49.435Z,102405.91
2023-05-07T10:21:19.817Z,102403.66
2023-05-07T10:23:51.212Z,102402.34
2023-05-07T10:26:22.485Z,102387.56
2023-05-07T10:28:55.365Z,102380.84
2023-05-07T10:31:45.187Z,102380.59
2023-05-07T10:34:18.909Z,102383.28
2023-05-07T10:36:47.070Z,102386.25
2023-05-07T10:39:14.862Z,102376.41
2023-05-07T10:41:42.598Z,102377.38
2023-05-07T10:44:10.417Z,102379.97
2023-05-07T10:46:38.394Z,102382.63
2023-05-07T10:49:11.250Z,102392.50
2023-05-07T10:51:40.944Z,102387.63
2023-05-07T10:54:22.114Z,102377.09
2023-05-07T10:56:51.618Z,102393.78
2023-05-07T10:59:44.703Z,102376.31
2023-05-07T11:02:15.181Z,102382.97
2023-05-07T11:04:43.070Z,102384.53
2023-05-07T11:07:27.379Z,102402.41
2023-05-07T11:10:16.369Z,102391.13
2023-05-07T11:12:55.179Z,102378.09
2023-05-07T11:15:44.376Z,102382.47
2023-05-07T11:18:13.827Z,102375.88
2023-05-07T11:20:59.697Z,102384.63
2023-05-07T11:24:10.211Z,102384.31
2023-05-07T11:26:47.744Z,102384.41
2023-05-07T11:29:20.123Z,102371.22
2023-05-07T11:31:53.196Z,102394.97
2023-05-07T11:34:24.772Z,102384.22
2023-05-07T11:36:53.067Z,102373.25
2023-05-07T11:39:31.413Z,102379.88
2023-05-07T11:42:00.732Z,102389.22
2023-05-07T11:44:43.389Z,102372.53
2023-05-07T11:47:12.422Z,102377.41
2023-05-07T11:49:41.685Z,102379.84
2023-05-07T11:52:09.516Z,102375.63
2023-05-07T11:54:38.831Z,102385.56
2023-05-07T11:57:08.397Z,102399.38
2023-05-07T11:59:41.025Z,102389.63
2023-05-07T12:02:09.348Z,102381.00
2023-05-07T12:07:23.552Z,102389.81
2023-05-07T12:09:52.083Z,102397.53
2023-05-07T12:12:21.193Z,102389.22
2023-05-07T12:14:48.958Z,102371.84
2023-05-07T12:17:18.375Z,102375.03
2023-05-07T12:19:47.417Z,102386.38
2023-05-07T12:22:15.405Z,102380.88
2023-05-07T12:24:47.516Z,102384.09
2023-05-07T12:27:15.694Z,102385.09
2023-05-07T12:29:48.515Z,102392.50
2023-05-07T12:32:17.568Z,102378.50
2023-05-07T12:34:45.997Z,102376.22
2023-05-07T12:37:14.731Z,102389.63
2023-05-07T12:39:46.727Z,102378.81
2023-05-07T12:42:18.018Z,102368.97
2023-05-07T12:44:48.851Z,102377.91
2023-05-07T12:47:17.347Z,102374.91
2023-05-07T12:49:46.857Z,102366.75
2023-05-07T12:52:15.595Z,102383.75
2023-05-07T12:54:43.338Z,102369.84
2023-05-07T12:57:12.329Z,102371.38
2023-05-07T12:59:41.506Z,102380.28
2023-05-07T13:02:11.597Z,102372.19
2023-05-07T13:04:39.646Z,102363.78
2023-05-07T13:07:07.382Z,102376.81
2023-05-07T13:09:35.217Z,102358.38
2023-05-07T13:12:03.333Z,102373.56
2023-05-07T13:14:32.007Z,102362.88
2023-05-07T13:16:59.727Z,102364.97
2023-05-07T13:19:30.372Z,102362.75
2023-05-07T13:21:59.294Z,102360.97
2023-05-07T13:24:28.274Z,102355.84
2023-05-07T13:26:57.310Z,102369.00
2023-05-07T13:29:29.714Z,102354.19
2023-05-07T13:31:59.237Z,102357.38
2023-05-07T13:34:28.373Z,102368.31
2023-05-07T13:36:56.903Z,102366.09
2023-05-07T13:39:24.659Z,102365.75
2023-05-07T13:41:52.370Z,102357.31
2023-05-07T13:44:20.094Z,102355.16
2023-05-07T13:46:47.841Z,102357.03
2023-05-07T13:49:15.562Z,102353.13
2023-05-07T13:51:44.654Z,102352.16
2023-05-07T13:54:12.811Z,102362.19
2023-05-07T13:56:40.978Z,102355.94
2023-05-07T13:59:12.018Z,102356.16
2023-05-07T14:01:39.798Z,102349.50
2023-05-07T14:04:08.842Z,102336.75
2023-05-07T14:06:36.676Z,102354.66
2023-05-07T14:09:05.793Z,102340.66
2023-05-07T14:11:34.168Z,102345.06
2023-05-07T14:14:03.790Z,102348.78
2023-05-07T14:16:31.652Z,102339.88
2023-05-07T14:18:59.399Z,102339.09
2023-05-07T14:21:27.267Z,102341.22
2023-05-07T14:23:55.218Z,102348.75
2023-05-07T14:26:24.356Z,102336.53
2023-05-07T14:28:52.130Z,102341.28
2023-05-07T14:31:19.979Z,102341.84
2023-05-07T14:33:47.761Z,102338.72
2023-05-07T14:36:16.686Z,102341.28
2023-05-07T14:38:44.434Z,102333.13
2023-05-07T14:41:12.205Z,102329.56
2023-05-07T14:43:41.367Z,102341.41
2023-05-07T14:46:09.123Z,102329.75
2023-05-07T14:48:36.900Z,102332.44
2023-05-07T14:51:04.955Z,102338.63
2023-05-07T14:53:32.721Z,102348.34
2023-05-07T14:56:01.160Z,102348.50
2023-05-07T14:58:28.974Z,102355.31
2023-05-07T15:00:58.438Z,102353.97
2023-05-07T15:03:26.555Z,102363.63
2023-05-07T15:05:54.388Z,102357.16
2023-05-07T15:08:22.155Z,102357.47
2023-05-07T15:10:50.058Z,102355.69
2023-05-07T15:13:17.995Z,102349.31
2023-05-07T15:15:46.898Z,102346.78
2023-05-07T15:18:16.600Z,102357.59
2023-05-07T15:20:44.884Z,102367.28
2023-05-07T15:23:13.249Z,102359.75
2023-05-07T15:25:41.118Z,102365.31
2023-05-07T15:28:09.015Z,102359.75
2023-05-07T15:30:37.035Z,102358.44
2023-05-07T15:33:04.934Z,102364.94
2023-05-07T15:35:34.221Z,102368.38
2023-05-07T15:38:04.464Z,102373.81
2023-05-07T15:40:32.440Z,102367.00
2023-05-07T15:43:00.180Z,102362.16
2023-05-07T15:45:28.361Z,102359.44
2023-05-07T15:47:56.340Z,102357.34
2023-05-07T15:50:24.457Z,102359.22
2023-05-07T15:52:56.622Z,102365.53
2023-05-07T15:55:24.556Z,102364.78
2023-05-07T15:57:56.206Z,102354.34
2023-05-07T16:00:24.079Z,102359.84
2023-05-07T16:02:52.303Z,102358.19
2023-05-07T16:05:20.079Z,102352.47
2023-05-07T16:07:48.653Z,102364.91
2023-05-07T16:10:17.830Z,102357.34
2023-05-07T16:12:45.690Z,102366.00
2023-05-07T16:15:14.433Z,102359.72
2023-05-07T16:17:42.835Z,102367.84
2023-05-07T16:20:13.101Z,102375.28
2023-05-07T16:22:42.694Z,102371.84
2023-05-07T16:25:11.283Z,102376.88
2023-05-07T16:27:40.584Z,102374.69
2023-05-07T16:30:09.944Z,102368.97
2023-05-07T16:32:37.912Z,102381.34
2023-05-07T16:35:07.341Z,102382.03
2023-05-07T16:37:35.417Z,102387.63
2023-05-07T16:40:07.526Z,102385.22
2023-05-07T16:42:36.365Z,102388.63
2023-05-07T16:45:07.054Z,102393.94
2023-05-07T16:47:34.845Z,102398.38
2023-05-07T16:50:05.916Z,102391.94
2023-05-07T16:52:34.000Z,102391.38
2023-05-07T16:55:01.893Z,102389.66
2023-05-07T16:57:30.921Z,102394.63
2023-05-07T16:59:59.935Z,102401.06
2023-05-07T17:02:29.207Z,102400.56
2023-05-07T17:04:58.581Z,102402.44
2023-05-07T17:07:27.215Z,102402.09
2023-05-07T17:09:54.951Z,102400.94
2023-05-07T17:12:22.759Z,102411.81
2023-05-07T17:14:50.720Z,102404.94
2023-05-07T17:17:18.496Z,102398.69
2023-05-07T17:19:48.052Z,102406.75
2023-05-07T17:22:15.921Z,102406.00
2023-05-07T17:24:43.819Z,102402.34
2023-05-07T17:27:11.638Z,102408.69
2023-05-07T17:29:39.425Z,102418.53
2023-05-07T17:32:08.581Z,102408.81
2023-05-07T17:34:36.650Z,102414.09
2023-05-07T17:37:05.731Z,102410.97
2023-05-07T17:39:33.586Z,102417.59
2023-05-07T17:42:01.451Z,102417.16
2023-05-07T17:44:29.349Z,102427.00
2023-05-07T17:46:57.089Z,102429.38
2023-05-07T17:49:24.917Z,102431.53
2023-05-07T17:51:55.158Z,102430.53
2023-05-07T17:54:26.804Z,102429.28
2023-05-07T17:56:54.726Z,102448.09
2023-05-07T17:59:23.686Z,102429.34
2023-05-07T18:01:51.894Z,102441.63
2023-05-07T18:04:26.298Z,102444.97
2023-05-07T18:06:54.413Z,102441.31
2023-05-07T18:09:22.199Z,102450.75
2023-05-07T18:11:51.339Z,102452.06
2023-05-07T18:14:24.023Z,102460.13
2023-05-07T18:16:51.868Z,102457.84
2023-05-07T18:19:19.673Z,102459.66
2023-05-07T18:21:47.653Z,102465.22
2023-05-07T18:24:15.832Z,102469.16
2023-05-07T18:26:43.657Z,102460.22
2023-05-07T18:29:12.796Z,102465.34
2023-05-07T18:31:40.572Z,102469.13
2023-05-07T18:34:10.189Z,102469.38
2023-05-07T18:36:37.938Z,102475.94
2023-05-07T18:39:05.727Z,102466.94
2023-05-07T18:41:33.541Z,102475.25
2023-05-07T18:44:01.338Z,102476.09
2023-05-07T18:46:30.502Z,102478.25
2023-05-07T18:48:58.334Z,102487.59
2023-05-07T18:51:27.264Z,102489.84
2023-05-07T18:53:55.033Z,102497.53
2023-05-07T18:56:22.743Z,102498.38
2023-05-07T18:58:51.679Z,102496.91
2023-05-07T19:01:19.470Z,102505.25
2023-05-07T19:03:48.686Z,102504.28
2023-05-07T19:06:16.588Z,102506.88
2023-05-07T19:08:44.519Z,102503.69
2023-05-07T19:11:12.384Z,102511.84
2023-05-07T19:13:40.119Z,102509.59
2023-05-07T19:16:10.369Z,102502.63
2023-05-07T19:18:38.250Z,102509.91
2023-05-07T19:21:07.971Z,102521.81
2023-05-07T19:23:41.504Z,102514.97
2023-05-07T19:26:10.047Z,102513.03
2023-05-07T19:28:39.096Z,102527.97
2023-05-07T19:31:08.234Z,102525.50
2023-05-07T19:33:35.977Z,102529.13
2023-05-07T19:36:03.678Z,102530.03
2023-05-07T19:38:32.920Z,102537.78
2023-05-07T19:41:00.739Z,102540.50
2023-05-07T19:43:28.736Z,102543.25
2023-05-07T19:45:56.497Z,102546.78
2023-05-07T19:48:24.299Z,102551.34
2023-05-07T19:50:52.025Z,102548.84
2023-05-07T19:53:19.951Z,102549.88
2023-05-07T19:55:49.082Z,102553.44
2023-05-07T19:58:16.903Z,102558.47
2023-05-07T20:00:44.652Z,102560.81
2023-05-07T20:03:18.567Z,102556.25
2023-05-07T20:05:47.021Z,102563.13
2023-05-07T20:08:15.020Z,102561.59
2023-05-07T20:10:42.795Z,102569.97
2023-05-07T20:13:11.902Z,102573.78
2023-05-07T20:15:39.749Z,102569.88
2023-05-07T20:18:08.081Z,102571.66
2023-05-07T20:20:36.069Z,102570.28
2023-05-07T20:23:04.172Z,102575.16
2023-05-07T20:25:31.918Z,102572.28
2023-05-07T20:28:00.004Z,102580.97
2023-05-07T20:30:29.133Z,102582.00
2023-05-07T20:32:57.645Z,102579.75
2023-05-07T20:35:25.451Z,102578.91
2023-05-07T20:37:53.160Z,102575.25
2023-05-07T20:40:21.135Z,102582.28
2023-05-07T20:42:48.853Z,102576.03
2023-05-07T20:45:17.148Z,102573.56
2023-05-07T20:47:46.300Z,102580.59
2023-05-07T20:50:14.326Z,102589.28
2023-05-07T20:52:42.912Z,102580.56
2023-05-07T20:55:10.889Z,102589.38
2023-05-07T20:57:38.646Z,102583.06
2023-05-07T21:00:08.155Z,102578.25
2023-05-07T21:02:36.033Z,102583.53
2023-05-07T21:05:05.677Z,102587.06
2023-05-07T21:07:33.398Z,102588.53
2023-05-07T21:10:01.120Z,102587.16
2023-05-07T21:12:28.889Z,102588.88
2023-05-07T21:14:57.654Z,102597.25
2023-05-07T21:17:25.454Z,102584.63
2023-05-07T21:19:53.278Z,102598.22
2023-05-07T21:22:22.367Z,102600.84
2023-05-07T21:24:50.108Z,102598.47
2023-05-07T21:27:17.902Z,102604.38
2023-05-07T21:29:46.086Z,102607.47
2023-05-07T21:32:13.948Z,102600.16
2023-05-07T21:34:41.739Z,102602.09
2023-05-07T21:37:09.482Z,102602.09
2023-05-07T21:39:38.687Z,102609.88
2023-05-07T21:42:06.488Z,102618.47
2023-05-07T21:44:34.293Z,102617.09
2023-05-07T21:47:02.088Z,102615.88
2023-05-07T21:49:29.860Z,102617.09
2023-05-07T21:51:57.633Z,102622.97
2023-05-07T21:54:25.393Z,102632.84
2023-05-07T21:56:54.516Z,102630.94
2023-05-07T21:59:22.273Z,102629.78
2023-05-07T22:01:50.104Z,102633.97
2023-05-07T22:04:18.069Z,102633.56
2023-05-07T22:06:45.816Z,102628.34
2023-05-07T22:09:13.977Z,102634.03
2023-05-07T22:11:41.873Z,102624.22
2023-05-07T22:14:11.013Z,102627.03
2023-05-07T22:16:39.785Z,102624.03
2023-05-07T22:19:07.514Z,102626.06
2023-05-07T22:21:35.440Z,102633.13
2023-05-07T22:24:03.648Z,102631.59
2023-05-07T22:26:31.393Z,102634.22
2023-05-07T22:28:59.277Z,102638.84
2023-05-07T22:31:28.514Z,102631.41
2023-05-07T22:33:56.273Z,102632.63
2023-05-07T22:36:24.418Z,102634.53
2023-05-07T22:38:52.162Z,102636.28
2023-05-07T22:41:19.896Z,102636.22
2023-05-07T22:43:47.669Z,102646.91
2023-05-07T22:46:15.456Z,102642.91
2023-05-07T22:48:44.736Z,102646.59
2023-05-07T22:51:14.719Z,102642.00
2023-05-07T22:53:42.576Z,102633.38
2023-05-07T22:56:10.966Z,102643.72
2023-05-07T22:58:38.773Z,102640.47
2023-05-07T23:01:13.290Z,102643.28
2023-05-07T23:03:41.247Z,102641.75
2023-05-07T23:06:10.651Z,102655.94
2023-05-07T23:08:38.401Z,102650.38
2023-05-07T23:11:06.461Z,102638.88
2023-05-07T23:13:34.246Z,102645.88
2023-05-07T23:16:01.992Z,102643.41
2023-05-07T23:18:30.491Z,102633.44
2023-05-07T23:20:58.211Z,102638.56
2023-05-07T23:23:33.436Z,102645.94
2023-05-07T23:26:01.279Z,102636.31
2023-05-07T23:28:29.033Z,102637.44
2023-05-07T23:30:56.831Z,102645.66
2023-05-07T23:33:24.767Z,102636.97
2023-05-07T23:35:59.893Z,102641.88
2023-05-07T23:38:29.353Z,102621.94
2023-05-07T23:40:57.238Z,102628.47
2023-05-07T23:43:25.471Z,102628.28
2023-05-07T23:45:53.291Z,102628.16
2023-05-07T23:48:21.077Z,102628.28
2023-05-07T23:50:48.790Z,102632.88
2023-05-07T23:53:16.546Z,102629.13
2023-05-07T23:55:45.718Z,102638.19
2023-05-07T23:58:13.968Z,102628.16
